createdAt,value
2023-03-15T00:01:50.497Z,5.40
2023-03-15T00:04:20.001Z,5.26
2023-03-15T00:06:50.501Z,5.40
2023-03-15T00:09:19.965Z,5.32
2023-03-15T00:11:49.176Z,5.30
2023-03-15T00:14:18.675Z,5.27
2023-03-15T00:16:47.780Z,5.30
2023-03-15T00:19:17.200Z,5.40
2023-03-15T00:21:46.328Z,5.33
2023-03-15T00:24:17.203Z,5.29
2023-03-15T00:26:46.223Z,5.33
2023-03-15T00:29:15.606Z,5.39
2023-03-15T00:31:44.657Z,5.35
2023-03-15T00:34:14.136Z,5.31
2023-03-15T00:36:43.736Z,5.26
2023-03-15T00:39:15.543Z,5.35
2023-03-15T00:41:46.289Z,5.39
2023-03-15T00:44:15.769Z,5.33
2023-03-15T00:46:44.976Z,5.23
2023-03-15T00:49:14.447Z,5.17
2023-03-15T00:51:43.512Z,5.16
2023-03-15T00:54:13.982Z,5.20
2023-03-15T00:56:43.071Z,5.10
2023-03-15T00:59:13.979Z,5.13
2023-03-15T01:01:45.108Z,5.19
2023-03-15T01:04:14.669Z,5.25
2023-03-15T01:06:43.745Z,5.18
2023-03-15T01:09:13.227Z,5.13
2023-03-15T01:11:42.351Z,5.23
2023-03-15T01:14:11.746Z,5.23
2023-03-15T01:16:42.290Z,5.20
2023-03-15T01:19:11.657Z,5.24
2023-03-15T01:21:40.712Z,5.26
2023-03-15T01:24:12.985Z,5.36
2023-03-15T01:26:42.139Z,5.30
2023-03-15T01:29:12.187Z,5.16
2023-03-15T01:31:42.708Z,5.15
2023-03-15T01:34:12.159Z,5.14
2023-03-15T01:36:41.348Z,5.21
2023-03-15T01:39:11.290Z,5.22
2023-03-15T01:41:40.452Z,5.24
2023-03-15T01:44:12.091Z,5.31
2023-03-15T01:46:42.708Z,5.20
2023-03-15T01:49:13.443Z,5.27
2023-03-15T01:51:43.051Z,5.28
2023-03-15T01:54:14.438Z,5.30
2023-03-15T01:56:44.547Z,5.26
2023-03-15T01:59:15.553Z,5.33
2023-03-15T02:01:46.090Z,5.42
2023-03-15T02:04:16.861Z,5.41
2023-03-15T02:06:46.800Z,5.25
2023-03-15T02:09:16.922Z,5.25
2023-03-15T02:11:46.077Z,5.13
2023-03-15T02:14:15.567Z,5.11
2023-03-15T02:16:46.382Z,5.20
2023-03-15T02:19:20.721Z,5.01
2023-03-15T02:21:51.800Z,5.15
2023-03-15T02:24:25.052Z,5.19
2023-03-15T02:26:55.053Z,5.14
2023-03-15T02:29:26.649Z,5.15
2023-03-15T02:31:55.762Z,5.21
2023-03-15T02:34:25.582Z,5.29
2023-03-15T02:36:55.485Z,5.27
2023-03-15T02:39:25.610Z,5.20
2023-03-15T02:41:55.009Z,5.15
2023-03-15T02:44:26.646Z,5.21
2023-03-15T02:46:56.686Z,5.15
2023-03-15T02:49:27.415Z,5.20
2023-03-15T02:51:56.508Z,5.04
2023-03-15T02:54:26.075Z,5.09
2023-03-15T02:56:55.117Z,4.99
2023-03-15T02:59:24.654Z,4.90
2023-03-15T03:01:55.228Z,5.07
2023-03-15T03:04:24.714Z,5.13
2023-03-15T03:06:53.814Z,5.21
2023-03-15T03:09:23.297Z,4.98
2023-03-15T03:11:52.426Z,4.99
2023-03-15T03:14:23.987Z,4.91
2023-03-15T03:16:54.544Z,4.70
2023-03-15T03:19:26.032Z,4.73
2023-03-15T03:21:55.428Z,4.82
2023-03-15T03:24:25.988Z,4.81
2023-03-15T03:26:58.130Z,4.86
2023-03-15T03:29:27.787Z,4.94
2023-03-15T03:31:58.277Z,4.87
2023-03-15T03:34:27.729Z,4.81
2023-03-15T03:36:56.784Z,4.97
2023-03-15T03:39:26.191Z,4.94
2023-03-15T03:41:55.233Z,4.94
2023-03-15T03:44:24.637Z,4.89
2023-03-15T03:46:53.739Z,5.02
2023-03-15T03:49:24.664Z,4.77
2023-03-15T03:51:53.797Z,4.82
2023-03-15T03:54:23.248Z,4.79
2023-03-15T03:56:52.361Z,4.83
2023-03-15T03:59:21.781Z,4.78
2023-03-15T04:01:51.387Z,4.72
2023-03-15T04:04:20.927Z,4.67
2023-03-15T04:06:51.508Z,4.63
2023-03-15T04:09:22.037Z,4.63
2023-03-15T04:11:51.184Z,4.52
2023-03-15T04:14:20.675Z,4.72
2023-03-15T04:16:49.782Z,4.72
2023-03-15T04:19:19.208Z,4.58
2023-03-15T04:21:48.367Z,4.51
2023-03-15T04:24:19.290Z,4.60
2023-03-15T04:26:48.359Z,4.48
2023-03-15T04:29:17.815Z,4.43
2023-03-15T04:31:46.961Z,4.32
2023-03-15T04:34:16.337Z,4.27
2023-03-15T04:36:45.441Z,4.44
2023-03-15T04:39:14.901Z,4.33
2023-03-15T04:41:45.562Z,4.36
2023-03-15T04:44:16.333Z,4.40
2023-03-15T04:46:45.524Z,4.37
2023-03-15T04:49:14.980Z,4.42
2023-03-15T04:51:44.102Z,4.35
2023-03-15T04:54:13.505Z,4.45
2023-03-15T04:56:42.615Z,4.33
2023-03-15T04:59:13.457Z,4.35
2023-03-15T05:01:42.632Z,4.09
2023-03-15T05:04:13.511Z,4.23
2023-03-15T05:06:42.682Z,4.31
2023-03-15T05:09:19.404Z,4.21
2023-03-15T05:11:48.633Z,4.26
2023-03-15T05:14:19.494Z,4.34
2023-03-15T05:16:48.570Z,4.37
2023-03-15T05:19:18.027Z,4.20
2023-03-15T05:21:47.146Z,4.31
2023-03-15T05:24:16.598Z,4.41
2023-03-15T05:26:46.660Z,4.41
2023-03-15T05:29:16.103Z,4.34
2023-03-15T05:31:46.702Z,4.17
2023-03-15T05:34:16.334Z,4.29
2023-03-15T05:36:45.458Z,4.25
2023-03-15T05:39:16.921Z,4.37
2023-03-15T05:41:46.375Z,4.38
2023-03-15T05:44:15.755Z,4.37
2023-03-15T05:46:46.291Z,4.30
2023-03-15T05:49:15.719Z,4.30
2023-03-15T05:51:45.173Z,4.29
2023-03-15T05:54:14.654Z,4.29
2023-03-15T05:56:43.771Z,4.23
2023-03-15T05:59:13.231Z,4.29
2023-03-15T06:01:42.365Z,4.22
2023-03-15T06:04:13.309Z,4.38
2023-03-15T06:06:42.500Z,4.29
2023-03-15T06:09:11.932Z,4.37
2023-03-15T06:11:41.039Z,4.26
2023-03-15T06:14:10.524Z,4.34
2023-03-15T06:16:39.727Z,4.24
2023-03-15T06:19:09.350Z,4.28
2023-03-15T06:21:39.916Z,4.31
2023-03-15T06:24:09.664Z,4.38
2023-03-15T06:26:38.745Z,4.42
2023-03-15T06:29:08.207Z,4.44
2023-03-15T06:31:37.285Z,4.44
2023-03-15T06:34:06.772Z,4.45
2023-03-15T06:36:37.083Z,4.53
2023-03-15T06:39:08.072Z,4.63
2023-03-15T06:41:37.129Z,4.69
2023-03-15T06:44:06.656Z,4.69
2023-03-15T06:46:35.823Z,4.67
2023-03-15T06:49:05.253Z,4.69
2023-03-15T06:51:34.336Z,4.68
2023-03-15T06:54:03.712Z,4.65
2023-03-15T06:56:37.440Z,4.71
2023-03-15T06:59:07.662Z,4.74
2023-03-15T07:01:36.867Z,4.70
2023-03-15T07:04:08.357Z,4.65
2023-03-15T07:06:37.554Z,4.71
2023-03-15T07:09:07.243Z,4.86
2023-03-15T07:11:37.775Z,4.92
2023-03-15T07:14:07.313Z,5.07
2023-03-15T07:16:36.523Z,5.09
2023-03-15T07:19:06.091Z,5.20
2023-03-15T07:21:35.260Z,5.23
2023-03-15T07:24:04.988Z,5.20
2023-03-15T07:26:34.072Z,5.19
2023-03-15T07:29:05.033Z,5.10
2023-03-15T07:31:34.249Z,5.13
2023-03-15T07:34:03.818Z,5.02
2023-03-15T07:36:33.436Z,5.13
2023-03-15T07:39:03.102Z,5.18
2023-03-15T07:41:32.557Z,5.09
2023-03-15T07:44:02.057Z,5.18
2023-03-15T07:46:32.662Z,5.34
2023-03-15T07:49:02.164Z,5.37
2023-03-15T07:51:31.264Z,5.31
2023-03-15T07:54:00.742Z,5.29
2023-03-15T07:56:29.819Z,5.50
2023-03-15T07:58:59.234Z,5.45
2023-03-15T08:01:28.386Z,5.57
2023-03-15T08:03:59.229Z,5.40
2023-03-15T08:06:28.339Z,5.62
2023-03-15T08:08:57.794Z,5.43
2023-03-15T08:11:26.997Z,5.54
2023-03-15T08:13:56.391Z,5.62
2023-03-15T08:16:25.509Z,5.75
2023-03-15T08:18:54.903Z,5.68
2023-03-15T08:21:25.375Z,5.89
2023-03-15T08:23:54.878Z,5.79
2023-03-15T08:26:24.016Z,5.78
2023-03-15T08:28:53.435Z,5.78
2023-03-15T08:31:22.489Z,5.65
2023-03-15T08:33:51.974Z,5.76
2023-03-15T08:36:21.137Z,5.74
2023-03-15T08:38:52.109Z,5.70
2023-03-15T08:41:21.209Z,5.73
2023-03-15T08:43:50.742Z,5.70
2023-03-15T08:46:22.134Z,5.66
2023-03-15T08:48:51.714Z,5.74
2023-03-15T08:51:21.849Z,5.83
2023-03-15T08:53:53.219Z,5.93
2023-03-15T08:56:22.346Z,5.87
2023-03-15T08:58:51.851Z,5.90
2023-03-15T09:01:21.054Z,5.84
2023-03-15T09:03:51.928Z,5.91
2023-03-15T09:06:21.179Z,6.01
2023-03-15T09:08:50.659Z,6.02
2023-03-15T09:11:21.219Z,5.94
2023-03-15T09:13:50.804Z,6.01
2023-03-15T09:16:20.006Z,6.14
2023-03-15T09:18:49.463Z,6.08
2023-03-15T09:21:18.527Z,6.05
2023-03-15T09:23:48.009Z,6.12
2023-03-15T09:26:17.346Z,6.09
2023-03-15T09:28:48.293Z,6.22
2023-03-15T09:31:17.434Z,6.33
2023-03-15T09:33:47.086Z,6.31
2023-03-15T09:36:16.178Z,6.30
2023-03-15T09:38:47.968Z,6.46
2023-03-15T09:41:18.627Z,6.50
2023-03-15T09:43:55.914Z,6.37
2023-03-15T09:46:27.963Z,6.39
2023-03-15T09:48:58.347Z,6.39
2023-03-15T09:51:32.170Z,6.41
2023-03-15T09:54:02.168Z,6.44
2023-03-15T09:56:33.510Z,6.52
2023-03-15T09:59:04.909Z,6.53
2023-03-15T10:01:34.435Z,6.62
2023-03-15T10:04:04.937Z,6.63
2023-03-15T10:06:36.570Z,6.77
2023-03-15T10:09:10.848Z,6.82
2023-03-15T10:11:41.462Z,6.88
2023-03-15T10:14:15.973Z,6.94
2023-03-15T10:16:45.887Z,7.06
2023-03-15T10:19:17.385Z,7.16
2023-03-15T10:21:50.263Z,7.32
2023-03-15T10:24:20.893Z,7.47
2023-03-15T10:26:50.042Z,7.34
2023-03-15T10:29:21.587Z,7.59
2023-03-15T10:31:52.796Z,7.70
2023-03-15T10:34:23.087Z,7.56
2023-03-15T10:36:54.600Z,7.54
2023-03-15T10:39:25.046Z,7.54
2023-03-15T10:41:54.137Z,7.40
2023-03-15T10:44:25.666Z,7.47
2023-03-15T10:47:06.969Z,7.47
2023-03-15T10:49:40.001Z,7.53
2023-03-15T10:52:25.451Z,7.45
2023-03-15T10:54:58.715Z,7.39
2023-03-15T10:57:33.142Z,7.45
2023-03-15T11:00:09.755Z,7.49
2023-03-15T11:02:38.934Z,7.45
2023-03-15T11:05:16.135Z,7.46
2023-03-15T11:07:54.790Z,7.36
2023-03-15T11:10:25.464Z,7.34
2023-03-15T11:13:09.390Z,7.26
2023-03-15T11:15:40.664Z,7.32
2023-03-15T11:18:14.681Z,7.19
2023-03-15T11:20:44.107Z,7.17
2023-03-15T11:23:15.792Z,7.12
2023-03-15T11:25:45.278Z,7.08
2023-03-15T11:28:17.606Z,7.09
2023-03-15T11:30:48.726Z,7.21
2023-03-15T11:33:23.877Z,7.09
2023-03-15T11:35:53.394Z,7.07
2023-03-15T11:38:25.620Z,6.97
2023-03-15T11:40:56.864Z,7.14
2023-03-15T11:43:26.742Z,7.12
2023-03-15T11:45:58.086Z,7.15
2023-03-15T11:48:28.288Z,7.23
2023-03-15T11:50:57.919Z,7.26
2023-03-15T11:53:28.928Z,7.28
2023-03-15T11:55:58.778Z,7.34
2023-03-15T11:58:29.285Z,7.38
2023-03-15T12:01:03.761Z,7.28
2023-03-15T12:03:41.794Z,7.26
2023-03-15T12:06:28.751Z,7.38
2023-03-15T12:08:57.817Z,7.36
2023-03-15T12:11:40.394Z,7.34
2023-03-15T12:14:23.130Z,7.41
2023-03-15T12:16:54.450Z,7.58
2023-03-15T12:19:23.607Z,7.56
2023-03-15T12:21:53.530Z,7.60
2023-03-15T12:24:23.346Z,7.72
2023-03-15T12:26:59.777Z,7.78
2023-03-15T12:29:29.700Z,7.85
2023-03-15T12:32:01.636Z,7.80
2023-03-15T12:34:38.522Z,7.88
2023-03-15T12:37:08.675Z,8.00
2023-03-15T12:39:42.343Z,8.07
2023-03-15T12:42:16.363Z,8.31
2023-03-15T12:44:45.494Z,8.30
2023-03-15T12:47:16.384Z,8.43
2023-03-15T12:49:45.761Z,8.52
2023-03-15T12:52:27.086Z,8.66
2023-03-15T12:54:56.956Z,8.81
2023-03-15T12:57:30.059Z,8.21
2023-03-15T13:00:00.226Z,8.48
2023-03-15T13:02:44.078Z,8.66
2023-03-15T13:05:17.263Z,8.65
2023-03-15T13:07:52.020Z,8.68
2023-03-15T13:10:24.729Z,8.68
2023-03-15T13:12:55.285Z,8.52
2023-03-15T13:15:25.014Z,8.45
2023-03-15T13:20:32.181Z,8.48
2023-03-15T13:23:04.692Z,8.52
2023-03-15T13:25:34.457Z,8.31
2023-03-15T13:28:05.189Z,8.58
2023-03-15T13:30:35.405Z,8.68
2023-03-15T13:33:13.410Z,8.84
2023-03-15T13:35:46.468Z,8.91
2023-03-15T13:38:24.522Z,8.99
2023-03-15T13:40:53.645Z,9.05
2023-03-15T13:43:25.964Z,9.15
2023-03-15T13:45:57.755Z,9.27
2023-03-15T13:48:32.318Z,9.09
2023-03-15T13:53:48.214Z,9.16
2023-03-15T13:56:19.538Z,9.03
2023-03-15T13:58:49.048Z,8.94
2023-03-15T14:01:18.267Z,8.96
2023-03-15T14:03:50.761Z,8.79
2023-03-15T14:06:22.850Z,8.71
2023-03-15T14:08:54.753Z,8.65
2023-03-15T14:11:35.097Z,8.81
2023-03-15T14:14:15.173Z,8.81
2023-03-15T14:17:03.109Z,8.82
2023-03-15T14:19:35.481Z,8.90
2023-03-15T14:22:05.193Z,8.97
2023-03-15T14:24:35.611Z,9.18
2023-03-15T14:27:07.455Z,9.21
2023-03-15T14:29:37.503Z,9.28
2023-03-15T14:32:07.309Z,9.20
2023-03-15T14:34:38.582Z,9.37
2023-03-15T14:37:10.294Z,9.46
2023-03-15T14:39:40.359Z,9.54
2023-03-15T14:42:11.390Z,9.57
2023-03-15T14:44:40.851Z,9.54
2023-03-15T14:47:13.493Z,9.60
2023-03-15T14:49:44.421Z,9.65
2023-03-15T14:52:13.909Z,9.82
2023-03-15T14:54:43.679Z,9.78
2023-03-15T14:57:12.962Z,9.93
2023-03-15T14:59:42.582Z,9.92
2023-03-15T15:02:12.818Z,9.91
2023-03-15T15:04:43.918Z,10.06
2023-03-15T15:07:14.933Z,10.10
2023-03-15T15:09:46.475Z,10.14
2023-03-15T15:12:16.010Z,10.15
2023-03-15T15:14:45.632Z,10.13
2023-03-15T15:17:14.648Z,10.27
2023-03-15T15:19:46.614Z,10.03
2023-03-15T15:22:17.469Z,10.10
2023-03-15T15:24:47.036Z,10.13
2023-03-15T15:27:16.145Z,10.16
2023-03-15T15:29:45.969Z,10.23
2023-03-15T15:32:15.080Z,9.97
2023-03-15T15:34:44.761Z,9.90
2023-03-15T15:37:14.212Z,9.70
2023-03-15T15:39:45.172Z,9.58
2023-03-15T15:42:14.309Z,9.50
2023-03-15T15:44:45.987Z,9.56
2023-03-15T15:47:15.060Z,9.30
2023-03-15T15:49:44.516Z,9.22
2023-03-15T15:52:13.624Z,9.17
2023-03-15T15:54:44.522Z,9.19
2023-03-15T15:57:14.059Z,9.26
2023-03-15T15:59:43.490Z,9.01
2023-03-15T16:02:14.569Z,8.69
2023-03-15T16:04:44.167Z,8.68
2023-03-15T16:07:13.513Z,8.65
2023-03-15T16:09:44.432Z,8.70
2023-03-15T16:12:14.528Z,8.37
2023-03-15T16:14:44.029Z,8.46
2023-03-15T16:17:13.537Z,8.45
2023-03-15T16:19:43.066Z,8.27
2023-03-15T16:22:12.199Z,8.19
2023-03-15T16:24:46.296Z,8.21
2023-03-15T16:27:16.347Z,8.08
2023-03-15T16:29:48.923Z,8.09
2023-03-15T16:32:32.888Z,8.10
2023-03-15T16:35:13.969Z,8.02
2023-03-15T16:37:43.141Z,8.04
2023-03-15T16:40:18.940Z,7.85
2023-03-15T16:42:48.052Z,7.90
2023-03-15T16:45:17.649Z,7.78
2023-03-15T16:47:46.886Z,7.81
2023-03-15T16:50:16.506Z,7.81
2023-03-15T16:52:47.852Z,7.83
2023-03-15T16:55:19.256Z,7.76
2023-03-15T16:57:48.421Z,7.72
2023-03-15T17:00:18.665Z,7.70
2023-03-15T17:02:48.433Z,7.72
2023-03-15T17:05:20.046Z,7.70
2023-03-15T17:07:49.748Z,7.71
2023-03-15T17:10:21.478Z,7.70
2023-03-15T17:12:50.852Z,7.68
2023-03-15T17:15:20.982Z,7.66
2023-03-15T17:17:50.375Z,7.65
2023-03-15T17:20:22.007Z,7.62
2023-03-15T17:22:51.371Z,7.58
2023-03-15T17:25:25.202Z,7.57
2023-03-15T17:27:54.809Z,7.53
2023-03-15T17:30:25.151Z,7.44
2023-03-15T17:32:55.207Z,7.37
2023-03-15T17:35:26.324Z,7.28
2023-03-15T17:37:55.569Z,7.31
2023-03-15T17:40:27.390Z,7.26
2023-03-15T17:42:57.330Z,7.24
2023-03-15T17:45:27.393Z,7.18
2023-03-15T17:47:56.669Z,7.10
2023-03-15T17:50:27.027Z,6.98
2023-03-15T17:52:56.545Z,6.87
2023-03-15T17:55:28.094Z,6.79
2023-03-15T17:57:57.551Z,6.75
2023-03-15T18:00:27.699Z,6.68
2023-03-15T18:02:56.935Z,6.65
2023-03-15T18:05:27.410Z,6.62
2023-03-15T18:07:59.147Z,6.57
2023-03-15T18:10:33.420Z,6.55
2023-03-15T18:13:02.947Z,6.54
2023-03-15T18:15:32.755Z,6.52
2023-03-15T18:18:03.155Z,6.50
2023-03-15T18:20:34.069Z,6.48
2023-03-15T18:23:04.165Z,6.48
2023-03-15T18:25:35.818Z,6.47
2023-03-15T18:28:05.108Z,6.47
2023-03-15T18:30:34.802Z,6.46
2023-03-15T18:33:05.912Z,6.47
2023-03-15T18:35:36.115Z,6.47
2023-03-15T18:38:05.381Z,6.42
2023-03-15T18:40:36.371Z,6.35
2023-03-15T18:43:05.659Z,6.31
2023-03-15T18:45:37.527Z,6.22
2023-03-15T18:48:06.956Z,6.16
2023-03-15T18:50:36.489Z,6.10
2023-03-15T18:53:06.490Z,6.05
2023-03-15T18:55:37.468Z,6.04
2023-03-15T18:58:09.058Z,5.97
2023-03-15T19:00:39.045Z,5.91
2023-03-15T19:03:08.377Z,5.87
2023-03-15T19:05:38.341Z,5.82
2023-03-15T19:08:07.532Z,5.80
2023-03-15T19:10:38.413Z,5.77
2023-03-15T19:13:07.516Z,5.72
2023-03-15T19:15:37.229Z,5.65
2023-03-15T19:18:06.382Z,5.59
2023-03-15T19:20:37.107Z,5.58
2023-03-15T19:23:06.312Z,5.53
2023-03-15T19:25:35.742Z,5.47
2023-03-15T19:28:06.773Z,5.41
2023-03-15T19:30:36.372Z,5.40
2023-03-15T19:33:05.525Z,5.31
2023-03-15T19:35:42.921Z,5.27
2023-03-15T19:38:14.768Z,5.20
2023-03-15T19:40:44.282Z,5.20
2023-03-15T19:43:15.353Z,5.15
2023-03-15T19:45:44.776Z,5.10
2023-03-15T19:48:16.119Z,5.09
2023-03-15T19:50:46.004Z,5.04
2023-03-15T19:53:15.074Z,5.00
2023-03-15T19:55:44.627Z,4.97
2023-03-15T19:58:15.400Z,4.91
2023-03-15T20:00:44.940Z,4.85
2023-03-15T20:03:14.034Z,4.81
2023-03-15T20:05:43.537Z,4.77
2023-03-15T20:08:12.675Z,4.71
2023-03-15T20:10:42.208Z,4.67
2023-03-15T20:13:11.481Z,4.64
2023-03-15T20:15:42.362Z,4.59
2023-03-15T20:18:13.903Z,4.60
2023-03-15T20:20:44.678Z,4.56
2023-03-15T20:23:14.716Z,4.55
2023-03-15T20:25:44.518Z,4.53
2023-03-15T20:28:13.654Z,4.51
2023-03-15T20:30:44.677Z,4.49
2023-03-15T20:33:14.011Z,4.45
2023-03-15T20:35:43.649Z,4.45
2023-03-15T20:38:13.399Z,4.41
2023-03-15T20:40:44.257Z,4.42
2023-03-15T20:43:13.336Z,4.38
2023-03-15T20:45:43.420Z,4.30
2023-03-15T20:48:13.932Z,4.27
2023-03-15T20:50:43.334Z,4.23
2023-03-15T20:53:12.471Z,4.24
2023-03-15T20:55:42.009Z,4.22
2023-03-15T20:58:11.343Z,4.19
2023-03-15T21:00:41.195Z,4.16
2023-03-15T21:03:11.044Z,4.13
2023-03-15T21:05:43.121Z,4.12
2023-03-15T21:08:13.979Z,4.10
2023-03-15T21:10:43.493Z,4.06
2023-03-15T21:13:12.604Z,3.99
2023-03-15T21:15:45.880Z,4.00
2023-03-15T21:18:15.096Z,3.99
2023-03-15T21:20:46.013Z,3.99
2023-03-15T21:23:15.152Z,3.96
2023-03-15T21:25:44.621Z,3.94
2023-03-15T21:28:13.957Z,3.91
2023-03-15T21:30:43.361Z,3.92
2023-03-15T21:33:12.506Z,3.90
2023-03-15T21:35:42.066Z,3.88
2023-03-15T21:38:12.649Z,3.88
2023-03-15T21:40:43.967Z,3.91
2023-03-15T21:43:13.904Z,3.86
2023-03-15T21:45:43.462Z,3.87
2023-03-15T21:48:12.868Z,3.88
2023-03-15T21:50:42.785Z,3.88
2023-03-15T21:53:13.350Z,3.88
2023-03-15T21:55:46.278Z,3.89
2023-03-15T21:58:15.514Z,3.88
2023-03-15T22:00:44.932Z,3.82
2023-03-15T22:03:14.403Z,3.80
2023-03-15T22:05:43.852Z,3.80
2023-03-15T22:08:14.400Z,3.76
2023-03-15T22:10:43.802Z,3.79
2023-03-15T22:13:13.040Z,3.76
2023-03-15T22:15:42.437Z,3.71
2023-03-15T22:18:11.491Z,3.71
2023-03-15T22:20:40.922Z,3.71
2023-03-15T22:23:10.461Z,3.70
2023-03-15T22:25:41.339Z,3.70
2023-03-15T22:28:10.411Z,3.68
2023-03-15T22:30:39.862Z,3.66
2023-03-15T22:33:09.864Z,3.67
2023-03-15T22:35:39.336Z,3.64
2023-03-15T22:38:10.303Z,3.63
2023-03-15T22:40:43.131Z,3.62
2023-03-15T22:43:12.300Z,3.63
2023-03-15T22:45:41.775Z,3.63
2023-03-15T22:48:10.886Z,3.57
2023-03-15T22:50:40.299Z,3.54
2023-03-15T22:53:09.422Z,3.50
2023-03-15T22:55:38.883Z,3.49
2023-03-15T22:58:09.359Z,3.44
2023-03-15T23:00:40.875Z,3.42
2023-03-15T23:03:09.903Z,3.35
2023-03-15T23:05:39.354Z,3.32
2023-03-15T23:08:08.544Z,3.29
2023-03-15T23:10:37.954Z,3.24
2023-03-15T23:13:07.091Z,3.24
2023-03-15T23:15:38.321Z,3.22
2023-03-15T23:18:07.534Z,3.15
2023-03-15T23:20:37.636Z,3.09
2023-03-15T23:23:07.517Z,3.07
2023-03-15T23:25:38.196Z,2.97
2023-03-15T23:28:07.531Z,3.01
2023-03-15T23:30:39.030Z,2.97
2023-03-15T23:33:08.765Z,2.92
2023-03-15T23:35:38.467Z,2.92
2023-03-15T23:38:08.598Z,2.95
2023-03-15T23:40:38.173Z,2.97
2023-03-15T23:43:09.423Z,2.95
2023-03-15T23:45:40.262Z,2.94
2023-03-15T23:48:09.376Z,2.91
2023-03-15T23:50:38.963Z,2.85
2023-03-15T23:53:08.046Z,2.91
2023-03-15T23:55:37.575Z,2.94
2023-03-15T23:58:07.447Z,2.85
